Time;durP1;ratioP1;P1;durP2;ratioP2;P2;SDS_P1;SDS_P2;PMS_P1;PMS_P2;Temp;Humidity;BMP_temperature;BMP_pressure;BME280_temperature;BME280_humidity;BME280_pressure;Samples;Min_cycle;Max_cycle;Signal;HPM_P1;HPM_P2
2021/04/20 00:02:20;;;;;;;4.22;3.15;;;3.70;99.90;;;;;;5030702;28;20143;-81
2021/04/20 00:04:46;;;;;;;6.25;2.72;;;3.70;99.90;;;;;;5045257;28;20102;-81
2021/04/20 00:07:13;;;;;;;8.13;5.95;;;3.70;99.90;;;;;;5050179;28;20068;-81
2021/04/20 00:09:41;;;;;;;4.72;2.38;;;3.70;99.90;;;;;;5015368;28;20071;-81
2021/04/20 00:12:08;;;;;;;5.60;3.30;;;3.60;99.90;;;;;;5019015;28;20048;-80
2021/04/20 00:14:34;;;;;;;6.57;2.80;;;3.60;99.90;;;;;;5031390;28;20060;-80
2021/04/20 00:17:03;;;;;;;2.95;2.47;;;3.60;99.90;;;;;;5025654;28;20053;-81
2021/04/20 00:19:29;;;;;;;5.93;2.05;;;3.50;99.90;;;;;;5011269;28;20530;-81
2021/04/20 00:21:56;;;;;;;3.58;1.85;;;3.50;99.90;;;;;;5028474;28;20419;-82
2021/04/20 00:24:22;;;;;;;4.00;1.83;;;3.50;99.90;;;;;;5014437;28;20053;-81
2021/04/20 00:26:49;;;;;;;10.85;2.65;;;3.40;99.90;;;;;;5015305;28;20060;-81
2021/04/20 00:29:16;;;;;;;2.28;1.80;;;3.40;99.90;;;;;;5026379;28;20142;-80
2021/04/20 00:31:42;;;;;;;3.97;2.22;;;3.40;99.90;;;;;;5040698;28;20159;-80
2021/04/20 00:34:09;;;;;;;2.13;1.80;;;3.30;99.90;;;;;;5028338;28;20129;-81
2021/04/20 00:36:35;;;;;;;4.40;2.00;;;3.30;99.90;;;;;;5033135;28;20069;-81
2021/04/20 00:39:02;;;;;;;2.78;1.90;;;3.30;99.90;;;;;;5028666;28;20060;-81
2021/04/20 00:41:29;;;;;;;5.35;2.30;;;3.30;99.90;;;;;;5034153;28;20506;-81
2021/04/20 00:43:55;;;;;;;6.57;2.30;;;3.30;99.90;;;;;;5024646;28;20410;-80
2021/04/20 00:46:24;;;;;;;2.40;2.20;;;3.30;99.90;;;;;;5019636;28;20045;-81
2021/04/20 00:48:51;;;;;;;4.85;2.90;;;3.30;99.90;;;;;;5012742;28;20750;-80
2021/04/20 00:51:19;;;;;;;6.68;3.28;;;3.20;99.90;;;;;;5030189;28;20094;-81
2021/04/20 00:53:46;;;;;;;6.18;3.10;;;3.20;99.90;;;;;;5027983;28;20083;-81
2021/04/20 00:56:18;;;;;;;3.88;2.75;;;3.20;99.90;;;;;;5037710;28;20059;-80
2021/04/20 00:58:46;;;;;;;4.95;2.60;;;3.10;99.90;;;;;;5045797;28;20056;-80
2021/04/20 01:01:13;;;;;;;6.90;2.65;;;3.10;99.90;;;;;;5037478;28;20060;-81
2021/04/20 01:03:42;;;;;;;5.90;2.60;;;3.10;99.90;;;;;;5017514;28;20705;-83
2021/04/20 01:06:09;;;;;;;5.30;2.55;;;3.10;99.90;;;;;;5048284;28;20053;-81
2021/04/20 01:08:36;;;;;;;4.78;3.58;;;3.10;99.90;;;;;;5051818;28;20494;-81
2021/04/20 01:11:04;;;;;;;6.15;3.95;;;3.20;99.90;;;;;;5016802;28;20541;-81
2021/04/20 01:13:33;;;;;;;6.35;5.03;;;3.20;99.90;;;;;;5020039;28;20048;-81
2021/04/20 01:16:00;;;;;;;6.65;3.90;;;3.20;99.90;;;;;;5044728;28;20127;-81
2021/04/20 01:18:32;;;;;;;6.35;3.75;;;3.20;99.90;;;;;;5033484;28;20104;-80
2021/04/20 01:21:13;;;;;;;8.57;2.63;;;3.20;99.90;;;;;;5034083;28;20029;-80
2021/04/20 01:24:01;;;;;;;3.65;2.53;;;3.20;99.90;;;;;;5034401;28;20044;-81
2021/04/20 01:26:46;;;;;;;5.63;2.88;;;3.20;99.90;;;;;;5052989;28;20048;-80
2021/04/20 01:29:14;;;;;;;4.15;2.08;;;3.20;99.90;;;;;;5039682;28;20036;-81
2021/04/20 01:31:44;;;;;;;4.18;2.47;;;3.20;99.90;;;;;;5032707;28;20071;-81
2021/04/20 01:34:12;;;;;;;4.10;2.40;;;3.20;99.90;;;;;;5014493;28;20037;-81
2021/04/20 01:36:39;;;;;;;5.03;2.33;;;3.20;99.90;;;;;;5018480;28;20060;-81
2021/04/20 01:39:07;;;;;;;6.15;2.72;;;3.10;99.90;;;;;;5035694;28;20207;-81
2021/04/20 01:41:35;;;;;;;3.60;2.33;;;3.10;99.90;;;;;;5034651;28;20726;-81
2021/04/20 01:44:03;;;;;;;5.93;2.30;;;3.10;99.90;;;;;;5032946;28;20091;-81
2021/04/20 01:46:30;;;;;;;4.35;1.90;;;3.10;99.90;;;;;;5018568;28;20037;-80
2021/04/20 01:48:56;;;;;;;3.08;2.00;;;3.00;99.90;;;;;;5022385;28;20052;-81
2021/04/20 01:51:24;;;;;;;12.73;2.30;;;3.00;99.90;;;;;;5015428;28;20478;-81
2021/04/20 01:53:51;;;;;;;7.47;2.58;;;3.00;99.90;;;;;;5017921;28;20151;-81
2021/04/20 01:56:18;;;;;;;6.60;2.17;;;3.00;99.90;;;;;;5018496;28;20044;-81
2021/04/20 01:58:46;;;;;;;3.95;2.80;;;2.90;99.90;;;;;;5049212;28;20105;-81
2021/04/20 02:01:16;;;;;;;2.78;2.00;;;2.90;99.90;;;;;;5032027;28;20565;-80
2021/04/20 02:03:47;;;;;;;4.05;3.63;;;2.90;99.90;;;;;;5018616;28;20041;-81
2021/04/20 02:06:16;;;;;;;9.90;2.05;;;2.90;99.90;;;;;;5033539;28;20052;-81
2021/04/20 02:08:43;;;;;;;7.22;2.42;;;2.90;99.90;;;;;;5016333;28;20053;-81
2021/04/20 02:11:12;;;;;;;3.72;2.38;;;2.80;99.90;;;;;;5032629;28;20419;-82
2021/04/20 02:13:39;;;;;;;7.65;2.28;;;2.80;99.90;;;;;;5049712;28;20041;-81
2021/04/20 02:16:07;;;;;;;5.47;2.22;;;2.80;99.90;;;;;;5030299;28;20037;-80
2021/04/20 02:18:40;;;;;;;4.30;2.58;;;2.80;99.90;;;;;;5019542;28;20033;-80
2021/04/20 02:21:08;;;;;;;5.03;2.00;;;2.80;99.90;;;;;;5005724;28;20731;-81
2021/04/20 02:23:36;;;;;;;3.13;1.83;;;2.70;99.90;;;;;;5012185;28;20076;-81
2021/04/20 02:26:06;;;;;;;3.45;2.17;;;2.70;99.90;;;;;;4997887;28;20065;-81
2021/04/20 02:28:33;;;;;;;5.38;2.30;;;2.70;99.90;;;;;;5000571;28;20042;-81
2021/04/20 02:31:06;;;;;;;10.02;2.92;;;2.70;99.90;;;;;;5027800;28;20053;-81
2021/04/20 02:33:36;;;;;;;4.80;2.15;;;2.70;99.90;;;;;;5011411;28;20041;-82
2021/04/20 02:36:05;;;;;;;8.07;1.73;;;2.70;99.90;;;;;;5014949;28;20053;-81
2021/04/20 02:38:32;;;;;;;3.17;1.90;;;2.70;99.90;;;;;;5029401;28;20060;-81
2021/04/20 02:41:04;;;;;;;8.38;3.28;;;2.70;99.90;;;;;;5022271;28;20091;-81
2021/04/20 02:43:32;;;;;;;4.82;2.20;;;2.70;99.90;;;;;;5028991;28;20047;-81
2021/04/20 02:46:02;;;;;;;6.10;2.55;;;2.70;99.90;;;;;;5028454;28;20046;-81
2021/04/20 02:48:30;;;;;;;2.92;1.98;;;2.70;99.90;;;;;;5030359;28;20041;-81
2021/04/20 02:50:56;;;;;;;7.47;2.83;;;2.60;99.90;;;;;;5027040;28;20046;-81
2021/04/20 02:53:43;;;;;;;5.88;2.10;;;2.60;99.90;;;;;;5030777;28;20056;-81
2021/04/20 02:56:15;;;;;;;13.02;3.15;;;2.50;99.90;;;;;;5025829;28;20038;-81
2021/04/20 02:58:43;;;;;;;3.63;2.30;;;2.50;99.90;;;;;;5013096;28;20037;-81
2021/04/20 03:01:17;;;;;;;5.05;2.08;;;2.50;99.90;;;;;;5029637;28;20053;-81
2021/04/20 03:03:50;;;;;;;4.00;2.10;;;2.50;99.90;;;;;;5030218;28;20128;-81
2021/04/20 03:06:17;;;;;;;7.43;2.35;;;2.50;99.90;;;;;;5025562;28;20064;-81
2021/04/20 03:08:48;;;;;;;5.13;2.58;;;2.50;99.90;;;;;;5028201;28;20109;-81
2021/04/20 03:11:23;;;;;;;6.93;2.40;;;2.50;99.90;;;;;;5011808;28;20067;-81
2021/04/20 03:13:50;;;;;;;5.78;2.00;;;2.40;99.90;;;;;;5024999;28;20087;-82
2021/04/20 03:16:30;;;;;;;8.32;1.92;;;2.40;99.90;;;;;;5026153;28;20045;-81
2021/04/20 03:18:57;;;;;;;4.25;2.60;;;2.40;99.90;;;;;;5003487;28;20049;-81
2021/04/20 03:21:24;;;;;;;7.13;2.20;;;2.40;99.90;;;;;;5027476;28;20373;-82
2021/04/20 03:23:54;;;;;;;8.85;2.83;;;2.40;99.90;;;;;;5026730;28;20041;-82
2021/04/20 03:26:24;;;;;;;10.00;3.30;;;2.40;99.90;;;;;;5042938;28;20049;-81
2021/04/20 03:28:55;;;;;;;10.30;2.63;;;2.40;99.90;;;;;;5021002;28;20045;-81
2021/04/20 03:31:22;;;;;;;5.07;3.33;;;2.40;99.90;;;;;;5041063;28;20387;-82
2021/04/20 03:34:27;;;;;;;4.65;3.05;;;2.40;99.90;;;;;;5025238;28;20045;-82
2021/04/20 03:37:13;;;;;;;5.57;2.30;;;2.40;99.90;;;;;;5029619;28;20083;-81
2021/04/20 03:39:45;;;;;;;6.60;2.40;;;2.40;99.90;;;;;;5010891;28;20048;-82
2021/04/20 03:42:22;;;;;;;6.72;2.33;;;2.40;99.90;;;;;;5025710;28;20459;-82
2021/04/20 03:44:55;;;;;;;4.90;2.08;;;2.40;99.90;;;;;;5024305;28;20102;-81
2021/04/20 03:47:43;;;;;;;6.25;1.75;;;2.40;99.90;;;;;;5034142;28;20044;-82
2021/04/20 03:50:17;;;;;;;4.45;3.17;;;2.40;99.90;;;;;;5009382;28;20045;-82
2021/04/20 03:52:48;;;;;;;;;;;2.50;99.90;;;;;;5033640;28;20100;-82
2021/04/20 03:55:18;;;;;;;7.10;3.00;;;2.50;99.90;;;;;;5016109;28;19956;-83
2021/04/20 03:57:46;;;;;;;2.78;2.38;;;2.50;99.90;;;;;;5048107;28;20045;-81
2021/04/20 04:00:15;;;;;;;8.45;2.65;;;2.50;99.90;;;;;;5029942;28;20095;-83
2021/04/20 04:02:45;;;;;;;7.00;3.53;;;2.50;99.90;;;;;;5045141;28;20056;-82
2021/04/20 04:05:17;;;;;;;4.68;2.00;;;2.50;99.90;;;;;;5030298;28;20048;-82
2021/04/20 04:07:48;;;;;;;8.38;2.60;;;2.50;99.90;;;;;;5009924;28;20072;-81
2021/04/20 04:10:36;;;;;;;6.53;2.33;;;2.50;99.90;;;;;;5029126;28;20141;-81
2021/04/20 04:13:05;;;;;;;6.25;2.80;;;2.60;99.90;;;;;;5012540;28;20080;-81
2021/04/20 04:15:33;;;;;;;12.20;3.92;;;2.50;99.90;;;;;;5027368;28;20033;-82
2021/04/20 04:18:04;;;;;;;5.18;2.75;;;2.50;99.90;;;;;;5028285;28;20630;-81
2021/04/20 04:20:31;;;;;;;5.40;2.47;;;2.60;99.90;;;;;;5029628;28;20490;-82
2021/04/20 04:23:04;;;;;;;5.78;2.83;;;2.60;99.90;;;;;;5031968;28;20084;-81
2021/04/20 04:25:36;;;;;;;5.05;2.85;;;2.60;99.90;;;;;;5026561;28;20037;-82
2021/04/20 04:28:06;;;;;;;6.20;2.97;;;2.70;99.90;;;;;;5047694;28;20299;-82
2021/04/20 04:30:33;;;;;;;5.97;3.13;;;2.70;99.90;;;;;;5014292;28;20041;-82
2021/04/20 04:33:00;;;;;;;4.28;2.28;;;2.80;99.90;;;;;;5049585;28;20045;-82
2021/04/20 04:35:29;;;;;;;5.63;3.17;;;2.80;99.90;;;;;;5018802;28;20037;-83
2021/04/20 04:37:56;;;;;;;8.02;2.85;;;2.80;99.90;;;;;;5033563;28;20048;-82
2021/04/20 04:40:24;;;;;;;3.97;2.42;;;2.90;99.90;;;;;;5047782;28;20048;-81
2021/04/20 04:42:50;;;;;;;5.63;2.40;;;2.90;99.90;;;;;;5035212;28;20075;-81
2021/04/20 04:45:17;;;;;;;8.00;3.50;;;2.90;99.90;;;;;;5024995;28;20402;-81
2021/04/20 04:47:44;;;;;;;7.00;3.03;;;3.00;99.90;;;;;;5046466;28;20040;-82
2021/04/20 04:50:12;;;;;;;9.90;2.60;;;3.10;99.90;;;;;;5050941;28;20041;-82
2021/04/20 04:52:40;;;;;;;7.10;3.58;;;3.10;99.90;;;;;;5034977;28;20044;-82
2021/04/20 04:55:08;;;;;;;8.63;2.72;;;3.20;99.90;;;;;;5032558;28;20132;-82
2021/04/20 04:57:35;;;;;;;5.32;2.33;;;3.20;99.90;;;;;;5035394;28;20084;-82
2021/04/20 05:00:06;;;;;;;5.00;2.97;;;3.30;99.90;;;;;;5020615;28;20060;-82
2021/04/20 05:02:38;;;;;;;12.27;3.90;;;3.40;99.90;;;;;;5016358;28;20052;-83
2021/04/20 05:05:08;;;;;;;9.85;3.55;;;3.40;99.90;;;;;;5033620;28;20048;-83
2021/04/20 05:07:35;;;;;;;5.43;3.00;;;3.50;99.90;;;;;;5010537;28;20041;-83
2021/04/20 05:10:08;;;;;;;6.03;2.58;;;3.60;99.90;;;;;;5002181;28;20045;-82
2021/04/20 05:12:35;;;;;;;6.68;2.58;;;3.70;99.90;;;;;;5040949;28;21430;-82
2021/04/20 05:15:05;;;;;;;7.53;2.72;;;3.70;99.90;;;;;;5026197;28;20536;-81
2021/04/20 05:17:36;;;;;;;5.30;2.95;;;3.90;99.90;;;;;;5025017;28;20050;-82
2021/04/20 05:20:05;;;;;;;9.10;3.80;;;3.90;99.90;;;;;;5009938;28;20109;-82
2021/04/20 05:22:34;;;;;;;9.63;3.83;;;4.00;99.90;;;;;;5005644;28;20420;-84
2021/04/20 05:25:11;;;;;;;5.55;3.13;;;4.10;99.90;;;;;;5007290;28;20462;-84
2021/04/20 05:27:39;;;;;;;9.13;3.15;;;4.10;99.90;;;;;;5034015;28;20045;-84
2021/04/20 05:30:07;;;;;;;12.20;4.78;;;4.20;99.90;;;;;;5021338;28;20056;-85
2021/04/20 05:32:38;;;;;;;7.85;2.75;;;4.30;99.90;;;;;;5022488;28;20069;-85
2021/04/20 05:35:14;;;;;;;6.15;2.83;;;4.40;99.90;;;;;;5026458;28;20053;-85
2021/04/20 05:37:46;;;;;;;5.15;2.70;;;4.50;99.90;;;;;;5025538;28;20041;-85
2021/04/20 05:40:15;;;;;;;8.80;3.88;;;4.60;99.90;;;;;;5008642;28;20045;-83
2021/04/20 05:42:42;;;;;;;13.35;5.30;;;4.70;99.90;;;;;;5027857;28;20044;-84
2021/04/20 05:45:14;;;;;;;12.27;3.60;;;4.80;99.90;;;;;;5026593;28;20135;-85
2021/04/20 05:47:48;;;;;;;12.23;3.28;;;4.90;99.90;;;;;;5027796;28;21507;-84
2021/04/20 05:50:29;;;;;;;10.45;3.25;;;5.00;99.90;;;;;;5012214;28;20037;-84
2021/04/20 05:52:58;;;;;;;7.63;2.75;;;5.10;99.90;;;;;;5027432;28;20048;-85
2021/04/20 05:55:25;;;;;;;8.00;3.10;;;5.20;99.90;;;;;;5029626;28;20155;-84
2021/04/20 05:57:54;;;;;;;5.07;3.00;;;5.30;99.90;;;;;;5041427;28;20049;-85
2021/04/20 06:00:23;;;;;;;9.18;3.90;;;5.40;99.90;;;;;;5044703;28;20041;-84
2021/04/20 06:02:52;;;;;;;14.13;3.75;;;5.50;99.90;;;;;;5025383;28;20041;-84
2021/04/20 06:05:25;;;;;;;9.15;2.80;;;5.70;99.90;;;;;;5043865;28;20049;-85
2021/04/20 06:07:54;;;;;;;13.05;3.08;;;5.80;99.90;;;;;;5010286;28;20110;-84
2021/04/20 06:10:22;;;;;;;8.27;2.78;;;6.00;99.90;;;;;;5028537;28;20049;-84
2021/04/20 06:12:49;;;;;;;8.23;3.00;;;6.10;99.90;;;;;;5013614;28;20095;-85
2021/04/20 06:15:20;;;;;;;9.30;3.28;;;6.20;99.90;;;;;;5026618;28;20037;-85
2021/04/20 06:17:47;;;;;;;8.35;2.80;;;6.30;99.90;;;;;;5040804;28;20045;-84
2021/04/20 06:20:16;;;;;;;4.03;2.40;;;6.40;99.90;;;;;;5025207;28;20167;-84
2021/04/20 06:22:48;;;;;;;10.00;2.53;;;6.50;99.90;;;;;;5027598;28;20442;-84
2021/04/20 06:25:19;;;;;;;14.23;4.93;;;6.70;99.90;;;;;;5010494;28;20157;-84
2021/04/20 06:27:48;;;;;;;4.55;2.70;;;6.80;99.90;;;;;;5011772;28;20044;-85
2021/04/20 06:30:16;;;;;;;5.00;2.40;;;7.00;99.90;;;;;;5044036;28;20041;-86
2021/04/20 06:32:44;;;;;;;9.43;2.35;;;7.10;99.90;;;;;;5013595;28;20142;-86
2021/04/20 06:35:12;;;;;;;7.38;4.05;;;7.20;99.90;;;;;;5026943;28;20524;-86
2021/04/20 06:37:41;;;;;;;6.22;2.45;;;7.20;99.90;;;;;;5012774;28;20072;-85
2021/04/20 06:40:25;;;;;;;4.97;2.30;;;7.40;99.90;;;;;;5027460;28;20102;-84
2021/04/20 06:43:00;;;;;;;9.45;2.17;;;7.50;99.90;;;;;;5023977;28;20095;-84
2021/04/20 06:46:09;;;;;;;5.40;2.55;;;7.60;99.90;;;;;;5045179;28;20041;-84
2021/04/20 06:48:41;;;;;;;7.60;2.45;;;7.80;99.90;;;;;;4932247;29;20047;-84
2021/04/20 06:51:15;;;;;;;9.07;2.72;;;7.90;99.90;;;;;;4929204;28;20483;-84
2021/04/20 06:53:58;;;;;;;6.20;2.75;;;7.90;99.90;;;;;;4990985;28;20485;-85
2021/04/20 06:56:40;;;;;;;3.92;2.20;;;8.00;99.90;;;;;;5027449;28;20052;-84
2021/04/20 06:59:22;;;;;;;4.88;2.75;;;8.20;99.90;;;;;;5030897;28;21497;-84
2021/04/20 07:02:10;;;;;;;3.67;2.72;;;8.20;99.90;;;;;;5061297;28;20040;-84
2021/04/20 07:04:58;;;;;;;3.97;2.25;;;8.20;99.90;;;;;;5049775;28;20052;-84
2021/04/20 07:07:52;;;;;;;7.17;2.83;;;8.20;99.90;;;;;;5063622;28;20087;-85
2021/04/20 07:10:41;;;;;;;6.28;2.80;;;8.10;99.90;;;;;;5051234;28;20046;-85
2021/04/20 07:13:16;;;;;;;11.93;3.83;;;8.20;99.90;;;;;;5064885;28;20107;-84
2021/04/20 07:15:56;;;;;;;4.13;3.17;;;8.20;99.90;;;;;;5032266;28;20044;-85
2021/04/20 07:18:49;;;;;;;;;;;8.30;99.90;;;;;;5047100;28;20122;-84
2021/04/20 07:21:28;;;;;;;4.72;2.78;;;8.30;99.90;;;;;;5005324;28;19924;-84
2021/04/20 07:24:03;;;;;;;4.47;2.08;;;8.20;99.90;;;;;;5044299;28;20072;-84
2021/04/20 07:27:02;;;;;;;3.45;2.05;;;8.20;99.90;;;;;;5064795;28;20125;-84
2021/04/20 07:29:53;;;;;;;4.78;2.22;;;8.10;99.90;;;;;;5046744;28;20052;-84
2021/04/20 07:32:41;;;;;;;6.78;1.88;;;8.10;99.90;;;;;;5043200;28;20051;-84
2021/04/20 07:35:13;;;;;;;4.45;2.47;;;8.20;99.90;;;;;;5046540;28;20051;-84
2021/04/20 07:37:43;;;;;;;8.02;2.53;;;8.10;99.90;;;;;;5029541;28;20078;-84
2021/04/20 07:40:40;;;;;;;7.75;2.40;;;8.10;99.90;;;;;;5034692;28;20781;-83
2021/04/20 07:43:36;;;;;;;7.22;2.60;;;8.20;99.90;;;;;;5061239;28;20052;-84
2021/04/20 07:46:42;;;;;;;6.63;2.80;;;8.30;99.90;;;;;;5045508;28;20343;-84
2021/04/20 07:49:14;;;;;;;14.48;3.40;;;8.30;99.90;;;;;;5003497;28;20041;-84
2021/04/20 07:51:54;;;;;;;5.55;2.47;;;8.40;99.90;;;;;;4987004;28;20085;-84
2021/04/20 07:55:00;;;;;;;3.25;1.70;;;8.40;99.90;;;;;;5026904;28;20427;-84
2021/04/20 07:57:41;;;;;;;7.43;2.15;;;8.60;99.90;;;;;;5031158;28;20197;-83
2021/04/20 08:00:14;;;;;;;11.98;2.72;;;8.60;99.90;;;;;;5045292;28;20522;-84
2021/04/20 08:03:04;;;;;;;6.13;2.15;;;8.70;99.90;;;;;;5066171;28;20125;-84
2021/04/20 08:06:09;;;;;;;5.97;2.45;;;8.80;99.90;;;;;;5045400;28;20331;-84
2021/04/20 08:08:44;;;;;;;3.80;2.22;;;9.00;99.90;;;;;;5046079;28;20131;-84
2021/04/20 08:11:33;;;;;;;4.03;1.73;;;9.00;99.90;;;;;;5044593;28;20052;-84
2021/04/20 08:14:25;;;;;;;11.68;2.88;;;9.10;99.90;;;;;;5055380;28;20094;-84
2021/04/20 08:16:56;;;;;;;5.30;2.42;;;9.10;99.90;;;;;;5063364;28;20139;-85
2021/04/20 08:19:26;;;;;;;4.75;2.20;;;9.10;99.90;;;;;;5028629;28;20044;-84
2021/04/20 08:21:54;;;;;;;6.03;1.98;;;9.10;99.90;;;;;;5045792;28;20139;-84
2021/04/20 08:24:28;;;;;;;2.42;2.05;;;9.00;99.90;;;;;;5061386;28;20139;-84
2021/04/20 08:27:07;;;;;;;4.75;1.70;;;9.00;99.90;;;;;;5047484;28;20064;-84
2021/04/20 08:29:39;;;;;;;3.78;1.92;;;9.00;99.90;;;;;;5026147;28;20048;-84
2021/04/20 08:32:18;;;;;;;4.82;2.22;;;9.00;99.90;;;;;;5043083;28;20036;-84
2021/04/20 08:34:54;;;;;;;6.55;2.33;;;9.00;99.90;;;;;;5044379;28;20041;-84
2021/04/20 08:37:53;;;;;;;5.20;2.75;;;9.00;99.90;;;;;;5045979;28;20086;-84
2021/04/20 08:40:55;;;;;;;5.85;1.98;;;9.00;99.90;;;;;;5024786;28;20056;-83
2021/04/20 08:43:46;;;;;;;7.05;1.70;;;9.10;99.90;;;;;;5049960;28;20516;-84
2021/04/20 08:46:35;;;;;;;5.38;2.30;;;9.10;99.90;;;;;;5042915;28;20048;-84
2021/04/20 08:49:30;;;;;;;7.50;2.47;;;9.00;99.90;;;;;;5046206;28;20105;-84
2021/04/20 08:52:14;;;;;;;8.80;2.72;;;8.80;99.90;;;;;;5044709;28;20146;-83
2021/04/20 08:55:11;;;;;;;4.28;2.20;;;8.80;99.90;;;;;;5042725;28;21088;-84
2021/04/20 08:58:28;;;;;;;10.02;2.83;;;8.90;99.90;;;;;;5062880;28;20086;-84
2021/04/20 09:00:58;;;;;;;5.55;2.72;;;8.90;99.90;;;;;;5009314;28;20103;-84
2021/04/20 09:03:40;;;;;;;5.95;2.70;;;9.10;99.90;;;;;;5062452;28;20056;-84
2021/04/20 09:06:12;;;;;;;6.15;3.10;;;9.20;99.90;;;;;;5040880;28;20152;-85
2021/04/20 09:09:05;;;;;;;5.47;2.75;;;9.30;99.90;;;;;;5062526;28;20047;-84
2021/04/20 09:11:47;;;;;;;12.00;3.13;;;9.40;99.90;;;;;;5032380;28;20072;-84
2021/04/20 09:14:38;;;;;;;3.88;2.38;;;9.50;99.90;;;;;;5061516;28;20078;-84
2021/04/20 09:17:09;;;;;;;2.75;2.08;;;9.40;99.90;;;;;;5068100;28;20435;-84
2021/04/20 09:19:38;;;;;;;4.63;2.17;;;9.50;99.90;;;;;;5046862;28;20044;-84
2021/04/20 09:22:24;;;;;;;12.93;3.70;;;9.40;99.90;;;;;;5048887;28;20044;-84
2021/04/20 09:25:05;;;;;;;7.50;2.45;;;9.50;99.90;;;;;;5030762;28;20049;-84
2021/04/20 09:27:56;;;;;;;2.25;2.05;;;9.50;99.90;;;;;;5064906;28;20040;-83
2021/04/20 09:30:26;;;;;;;6.07;2.00;;;9.40;99.90;;;;;;5032513;28;20048;-83
2021/04/20 09:33:14;;;;;;;2.38;2.08;;;9.60;99.90;;;;;;5048035;28;20131;-83
2021/04/20 09:36:00;;;;;;;7.40;2.72;;;9.50;99.90;;;;;;5065959;28;20059;-84
2021/04/20 09:38:28;;;;;;;7.47;2.00;;;9.60;99.90;;;;;;5030738;28;20588;-83
2021/04/20 09:40:56;;;;;;;5.47;2.42;;;9.70;99.90;;;;;;5032071;28;20045;-83
2021/04/20 09:43:22;;;;;;;3.03;2.28;;;9.60;99.90;;;;;;5047678;28;20052;-83
2021/04/20 09:46:18;;;;;;;5.78;1.92;;;9.40;99.90;;;;;;5030164;28;20044;-84
2021/04/20 09:49:03;;;;;;;4.25;1.92;;;9.40;99.90;;;;;;5064839;28;20102;-81
2021/04/20 09:51:38;;;;;;;7.28;2.03;;;9.50;99.90;;;;;;5047986;28;20049;-81
2021/04/20 09:54:27;;;;;;;7.55;2.60;;;9.60;99.90;;;;;;5004526;28;20149;-81
2021/04/20 09:57:02;;;;;;;3.92;2.10;;;9.50;99.90;;;;;;5009141;28;20041;-82
2021/04/20 09:59:45;;;;;;;12.55;1.95;;;9.50;99.90;;;;;;5014125;28;20034;-82
2021/04/20 10:02:25;;;;;;;;;;;9.50;99.90;;;;;;5010834;28;20049;-80
2021/04/20 10:05:06;;;;;;;4.45;2.83;;;9.60;99.90;;;;;;5027444;28;20386;-81
2021/04/20 10:08:10;;;;;;;3.88;2.25;;;9.40;99.90;;;;;;5024493;28;20109;-81
2021/04/20 10:10:57;;;;;;;5.82;2.22;;;9.30;99.90;;;;;;5009811;28;20038;-80
2021/04/20 10:13:42;;;;;;;5.63;2.90;;;9.30;99.90;;;;;;5012519;28;20124;-81
2021/04/20 10:16:21;;;;;;;6.10;2.65;;;9.40;99.90;;;;;;5012001;28;20592;-81
2021/04/20 10:19:03;;;;;;;3.78;1.98;;;9.40;99.90;;;;;;5010108;28;20045;-81
2021/04/20 10:21:39;;;;;;;7.53;3.08;;;9.30;99.90;;;;;;5028456;28;20065;-80
2021/04/20 10:24:36;;;;;;;6.00;3.08;;;9.30;99.90;;;;;;5024980;28;20096;-81
2021/04/20 10:27:06;;;;;;;4.20;1.80;;;9.30;99.90;;;;;;4994918;28;20057;-80
2021/04/20 10:29:53;;;;;;;5.22;1.88;;;9.30;99.90;;;;;;5021591;28;20128;-81
2021/04/20 10:32:30;;;;;;;6.10;2.13;;;9.50;99.90;;;;;;5008937;28;20771;-81
2021/04/20 10:34:59;;;;;;;10.75;2.38;;;9.60;99.90;;;;;;5008677;28;20041;-80
2021/04/20 10:37:46;;;;;;;4.28;2.17;;;9.40;99.90;;;;;;5032189;28;20057;-80
2021/04/20 10:40:21;;;;;;;3.17;1.90;;;9.30;99.90;;;;;;5029769;28;20103;-80
2021/04/20 10:42:49;;;;;;;4.13;1.98;;;9.20;99.90;;;;;;5042514;28;20076;-80
2021/04/20 10:45:17;;;;;;;6.72;2.17;;;9.10;99.90;;;;;;5026582;28;20050;-80
2021/04/20 10:47:49;;;;;;;3.78;2.92;;;8.70;99.90;;;;;;5034924;28;20207;-81
2021/04/20 10:50:25;;;;;;;9.50;2.40;;;8.60;99.90;;;;;;5029909;28;20107;-81
2021/04/20 10:53:03;;;;;;;5.35;2.15;;;8.80;99.90;;;;;;5047730;28;20049;-81
2021/04/20 10:55:32;;;;;;;4.00;3.55;;;8.80;99.90;;;;;;5046351;28;20049;-81
2021/04/20 10:58:00;;;;;;;9.95;4.15;;;8.90;99.90;;;;;;5044369;28;20049;-80
2021/04/20 11:00:29;;;;;;;4.18;2.33;;;9.00;99.90;;;;;;5047164;28;20053;-81
2021/04/20 11:02:58;;;;;;;5.38;3.47;;;9.10;99.90;;;;;;5048272;28;20047;-83
2021/04/20 11:05:36;;;;;;;4.40;2.10;;;9.10;99.90;;;;;;1696202;28;10022703;-82
2021/04/20 11:08:03;;;;;;;5.03;2.92;;;9.10;99.90;;;;;;3987014;28;10001314;-81
2021/04/20 11:10:37;;;;;;;4.13;2.05;;;9.20;99.90;;;;;;5061088;28;20048;-82
2021/04/20 11:13:08;;;;;;;3.85;2.15;;;9.20;99.90;;;;;;5049123;28;20159;-81
2021/04/20 11:15:34;;;;;;;9.43;2.60;;;9.30;99.90;;;;;;5047677;28;20343;-82
2021/04/20 11:18:12;;;;;;;6.35;2.53;;;9.20;99.90;;;;;;5048267;28;20128;-81
2021/04/20 11:20:47;;;;;;;5.45;2.92;;;9.20;99.90;;;;;;5047831;28;20143;-81
2021/04/20 11:23:18;;;;;;;2.72;1.95;;;9.10;99.90;;;;;;5046069;28;20099;-80
2021/04/20 11:25:52;;;;;;;4.78;2.15;;;9.10;99.90;;;;;;5029659;28;20160;-80
2021/04/20 11:28:40;;;;;;;5.22;3.88;;;9.30;99.90;;;;;;5064614;28;20045;-81
2021/04/20 11:31:26;;;;;;;2.92;2.13;;;9.20;99.90;;;;;;5030951;28;20044;-80
2021/04/20 11:34:13;;;;;;;10.70;2.38;;;9.30;99.90;;;;;;5060966;28;20182;-81
2021/04/20 11:36:44;;;;;;;6.57;2.15;;;9.30;99.90;;;;;;5029820;28;20057;-81
2021/04/20 11:39:21;;;;;;;6.15;3.03;;;9.30;99.90;;;;;;5047508;28;20534;-81
2021/04/20 11:42:12;;;;;;;14.52;4.72;;;9.10;99.90;;;;;;5043931;28;20056;-82
2021/04/20 11:44:47;;;;;;;10.65;3.75;;;9.10;99.90;;;;;;5064262;28;20132;-81
2021/04/20 11:47:15;;;;;;;4.32;2.40;;;9.20;99.90;;;;;;5045505;28;20037;-81
2021/04/20 11:49:57;;;;;;;4.10;2.40;;;9.20;99.90;;;;;;5061547;28;20063;-80
2021/04/20 11:52:28;;;;;;;3.65;2.03;;;9.30;99.90;;;;;;5048040;28;20044;-80
2021/04/20 11:54:58;;;;;;;10.65;2.90;;;9.30;99.90;;;;;;5067250;28;20683;-81
2021/04/20 11:57:26;;;;;;;5.13;2.38;;;9.40;99.90;;;;;;5035777;28;20055;-81
2021/04/20 11:59:54;;;;;;;5.43;2.63;;;9.40;99.90;;;;;;5064522;28;20052;-81
2021/04/20 12:02:29;;;;;;;7.80;1.90;;;9.30;99.90;;;;;;5050535;28;20128;-81
2021/04/20 12:05:11;;;;;;;9.40;2.97;;;9.30;99.90;;;;;;5069076;28;20049;-80
2021/04/20 12:07:40;;;;;;;5.47;1.85;;;9.30;99.90;;;;;;5051092;28;20128;-80
2021/04/20 12:10:15;;;;;;;4.38;3.10;;;9.40;99.90;;;;;;5046649;28;20051;-80
2021/04/20 12:12:42;;;;;;;9.32;2.50;;;9.20;99.90;;;;;;5067689;28;20777;-82
2021/04/20 12:15:16;;;;;;;7.53;2.60;;;9.30;99.90;;;;;;5052694;28;20446;-81
2021/04/20 12:17:44;;;;;;;6.30;2.22;;;9.50;99.90;;;;;;5051314;28;20086;-82
2021/04/20 12:20:21;;;;;;;7.57;2.50;;;9.50;99.90;;;;;;5048620;28;20040;-81
2021/04/20 12:22:53;;;;;;;6.43;2.22;;;9.60;99.90;;;;;;5069621;28;20100;-81
2021/04/20 12:25:21;;;;;;;3.50;2.10;;;9.40;99.90;;;;;;5032148;28;20108;-81
2021/04/20 12:27:51;;;;;;;5.45;2.17;;;9.40;99.90;;;;;;5052252;28;20044;-82
2021/04/20 12:30:20;;;;;;;10.27;3.20;;;9.20;99.90;;;;;;5032419;28;20075;-81
2021/04/20 12:32:47;;;;;;;5.43;2.15;;;9.40;99.90;;;;;;5035263;28;20086;-81
2021/04/20 12:35:14;;;;;;;10.13;2.95;;;9.20;99.90;;;;;;5048519;28;20152;-81
2021/04/20 12:37:41;;;;;;;4.25;1.73;;;9.30;99.90;;;;;;5051333;28;20047;-80
2021/04/20 12:40:11;;;;;;;7.50;2.70;;;9.40;99.90;;;;;;5043672;28;20540;-80
2021/04/20 12:42:41;;;;;;;9.43;3.70;;;9.40;99.90;;;;;;5051703;28;20359;-82
2021/04/20 12:45:20;;;;;;;5.95;2.33;;;9.30;99.90;;;;;;5048875;28;20136;-81
2021/04/20 12:48:06;;;;;;;5.70;2.42;;;9.20;99.90;;;;;;5050763;28;20048;-81
2021/04/20 12:50:42;;;;;;;6.53;3.10;;;9.40;99.90;;;;;;5038213;28;20033;-82
2021/04/20 12:53:10;;;;;;;5.28;3.40;;;9.40;99.90;;;;;;5057859;28;20775;-81
2021/04/20 12:55:41;;;;;;;3.95;2.30;;;9.40;99.90;;;;;;5053017;28;20780;-82
2021/04/20 12:58:15;;;;;;;5.18;2.40;;;9.70;99.90;;;;;;5067107;28;20080;-80
2021/04/20 13:00:42;;;;;;;8.32;3.13;;;9.90;99.90;;;;;;5063748;28;20063;-82
2021/04/20 13:03:09;;;;;;;5.30;2.00;;;9.90;99.90;;;;;;5067426;28;20102;-81
2021/04/20 13:05:39;;;;;;;3.08;1.98;;;9.70;99.90;;;;;;5037068;28;20148;-81
2021/04/20 13:08:09;;;;;;;9.13;3.42;;;9.80;99.90;;;;;;5068837;28;20154;-81
2021/04/20 13:10:36;;;;;;;8.85;2.58;;;9.90;99.90;;;;;;5053224;28;20520;-81
2021/04/20 13:13:09;;;;;;;6.70;2.13;;;9.80;99.90;;;;;;5054262;28;20040;-82
2021/04/20 13:15:37;;;;;;;6.25;1.77;;;9.70;99.90;;;;;;5063280;28;20079;-81
2021/04/20 13:18:16;;;;;;;5.97;2.70;;;9.60;99.90;;;;;;5048978;28;20052;-82
2021/04/20 13:20:45;;;;;;;5.30;2.05;;;9.70;99.90;;;;;;5053456;28;20051;-81
2021/04/20 13:23:43;;;;;;;6.45;1.90;;;9.80;99.90;;;;;;5052823;28;20048;-81
2021/04/20 13:26:22;;;;;;;7.13;1.60;;;9.80;99.90;;;;;;5028425;28;20788;-80
2021/04/20 13:28:51;;;;;;;4.82;2.20;;;9.90;99.90;;;;;;5053122;28;20161;-81
2021/04/20 13:31:35;;;;;;;14.50;3.10;;;9.80;99.90;;;;;;5046780;28;20049;-81
2021/04/20 13:34:06;;;;;;;6.63;2.72;;;9.80;99.90;;;;;;5066319;28;20037;-82